createdAt,value
2018-05-04T00:03:43.858Z,101770.20
2018-05-04T00:08:45.150Z,101773.61
2018-05-04T00:13:46.448Z,101774.55
2018-05-04T00:18:48.478Z,101781.63
2018-05-04T00:23:49.785Z,101789.63
2018-05-04T00:28:51.090Z,101792.16
2018-05-04T00:33:52.381Z,101806.09
2018-05-04T00:38:53.703Z,101797.10
2018-05-04T00:43:55.039Z,101812.93
2018-05-04T00:48:56.335Z,101809.93
2018-05-04T00:54:16.030Z,101805.38
2018-05-04T00:59:17.353Z,101823.02
2018-05-04T01:04:18.691Z,101822.30
2018-05-04T01:09:20.758Z,101828.42
2018-05-04T01:14:22.069Z,101836.41
2018-05-04T01:19:23.361Z,101839.38
2018-05-04T01:24:24.676Z,101839.69
2018-05-04T01:29:25.994Z,101835.89
2018-05-04T01:34:27.294Z,101842.58
2018-05-04T01:39:28.582Z,101860.08
2018-05-04T01:44:29.886Z,101863.11
2018-05-04T01:49:31.184Z,101860.03
2018-05-04T01:54:32.499Z,101867.49
2018-05-04T01:59:34.533Z,101873.23
2018-05-04T02:04:35.875Z,101862.47
2018-05-04T02:09:37.182Z,101859.61
2018-05-04T02:14:38.485Z,101867.64
2018-05-04T02:19:39.774Z,101857.72
2018-05-04T02:24:41.079Z,101864.37
2018-05-04T02:29:42.389Z,101867.05
2018-05-04T02:34:43.677Z,101873.73
2018-05-04T02:39:44.979Z,101873.39
2018-05-04T02:44:46.285Z,101866.94
2018-05-04T02:49:47.582Z,101858.55
2018-05-04T02:54:49.616Z,101873.59
2018-05-04T02:59:50.973Z,101862.98
2018-05-04T03:04:52.975Z,101861.27
2018-05-04T03:09:54.329Z,101849.42
2018-05-04T03:14:55.725Z,101840.47
2018-05-04T03:19:57.192Z,101840.06
2018-05-04T03:24:58.478Z,101842.64
2018-05-04T03:29:59.768Z,101847.77
2018-05-04T03:35:01.092Z,101845.22
2018-05-04T03:40:02.436Z,101847.48
2018-05-04T03:45:04.545Z,101843.31
2018-05-04T03:50:05.925Z,101835.36
2018-05-04T03:55:07.970Z,101842.00
2018-05-04T04:00:27.831Z,101847.31
2018-05-04T04:05:29.143Z,101846.72
2018-05-04T04:10:31.213Z,101852.92
2018-05-04T04:15:32.531Z,101857.98
2018-05-04T04:20:34.558Z,101870.19
2018-05-04T04:25:35.844Z,101870.92
2018-05-04T04:30:37.168Z,101864.13
2018-05-04T04:35:38.492Z,101871.00
2018-05-04T04:40:39.784Z,101870.97
2018-05-04T04:45:41.131Z,101882.73
2018-05-04T04:50:43.126Z,101883.07
2018-05-04T04:55:44.422Z,101895.13
2018-05-04T05:00:45.727Z,101904.23
2018-05-04T05:05:47.022Z,101914.53
2018-05-04T05:10:48.317Z,101916.19
2018-05-04T05:15:49.616Z,101920.42
2018-05-04T05:20:50.913Z,101913.36
2018-05-04T05:25:52.973Z,101914.27
2018-05-04T05:30:54.385Z,101924.02
2018-05-04T05:35:55.657Z,101937.45
2018-05-04T05:40:56.945Z,101940.25
2018-05-04T05:45:58.248Z,101935.78
2018-05-04T05:50:59.545Z,101939.09
2018-05-04T05:56:00.829Z,101939.29
2018-05-04T06:01:02.241Z,101939.09
2018-05-04T06:06:03.503Z,101942.00
2018-05-04T06:11:04.878Z,101944.14
2018-05-04T06:16:06.198Z,101949.74
2018-05-04T06:21:07.510Z,101945.54
2018-05-04T06:26:09.577Z,101944.45
2018-05-04T06:31:10.873Z,101938.08
2018-05-04T06:36:12.181Z,101941.05
2018-05-04T06:41:13.479Z,101954.58
2018-05-04T06:46:15.504Z,101951.42
2018-05-04T06:51:16.793Z,101955.67
2018-05-04T06:56:18.093Z,101944.73
2018-05-04T07:01:19.414Z,101946.13
2018-05-04T07:06:20.737Z,101952.58
2018-05-04T07:11:22.768Z,101953.16
2018-05-04T07:16:24.096Z,101952.72
2018-05-04T07:21:25.388Z,101960.36
2018-05-04T07:26:26.725Z,101959.93
2018-05-04T07:31:28.785Z,101949.92
2018-05-04T07:36:30.090Z,101952.01
2018-05-04T07:41:31.390Z,101943.22
2018-05-04T07:46:32.725Z,101932.89
2018-05-04T07:51:34.049Z,101927.40
2018-05-04T07:56:35.361Z,101935.14
2018-05-04T08:01:37.433Z,101931.53
2018-05-04T08:06:38.743Z,101924.91
2018-05-04T08:11:40.046Z,101935.19
2018-05-04T08:16:42.142Z,101943.63
2018-05-04T08:21:50.505Z,101947.95
2018-05-04T08:26:51.819Z,101949.01
2018-05-04T08:31:53.129Z,101950.61
2018-05-04T08:36:54.438Z,101945.75
2018-05-04T08:41:55.742Z,101949.86
2018-05-04T08:46:57.054Z,101949.30
2018-05-04T08:51:59.090Z,101950.60
2018-05-04T08:57:00.405Z,101945.45
2018-05-04T09:02:01.725Z,101931.20
2018-05-04T09:07:03.061Z,101939.90
2018-05-04T09:12:04.359Z,101929.02
2018-05-04T09:17:05.666Z,101922.77
2018-05-04T09:22:06.977Z,101928.20
2018-05-04T09:27:08.269Z,101924.83
2018-05-04T09:32:09.557Z,101932.59
2018-05-04T09:37:10.867Z,101934.31
2018-05-04T09:42:12.973Z,101933.72
2018-05-04T09:47:14.214Z,101930.58
2018-05-04T09:52:15.517Z,101931.69
2018-05-04T09:57:16.823Z,101932.48
2018-05-04T10:02:18.158Z,101927.17
2018-05-04T10:07:19.502Z,101922.93
2018-05-04T10:12:20.823Z,101930.29
2018-05-04T10:17:22.140Z,101930.05
2018-05-04T10:22:23.445Z,101934.59
2018-05-04T10:27:24.747Z,101926.14
2018-05-04T10:32:26.090Z,101933.87
2018-05-04T10:37:27.494Z,101928.58
2018-05-04T10:42:28.810Z,101922.20
2018-05-04T10:47:30.160Z,101924.20
2018-05-04T10:52:31.495Z,101929.97
2018-05-04T10:57:32.824Z,101921.59
2018-05-04T11:02:34.145Z,101924.14
2018-05-04T11:07:35.469Z,101926.78
2018-05-04T11:12:36.826Z,101927.71
2018-05-04T11:17:38.154Z,101927.79
2018-05-04T11:22:39.509Z,101930.93
2018-05-04T11:27:40.848Z,101928.78
2018-05-04T11:32:42.955Z,101932.09
2018-05-04T11:37:44.277Z,101941.48
2018-05-04T11:42:45.645Z,101936.02
2018-05-04T11:47:47.697Z,101942.88
2018-05-04T11:52:49.053Z,101934.30
2018-05-04T11:57:50.422Z,101929.85
2018-05-04T12:02:52.484Z,101929.71
2018-05-04T12:07:53.803Z,101933.55
2018-05-04T12:12:55.217Z,101926.77
2018-05-04T12:17:56.529Z,101924.23
2018-05-04T12:22:58.258Z,101933.45
2018-05-04T12:28:00.986Z,101930.12
2018-05-04T12:33:02.942Z,101919.38
2018-05-04T12:38:04.269Z,101928.78
2018-05-04T12:43:06.450Z,101923.19
2018-05-04T12:48:07.793Z,101939.67
2018-05-04T12:53:09.090Z,101924.27
2018-05-04T12:58:11.151Z,101933.73
2018-05-04T13:03:12.432Z,101926.80
2018-05-04T13:08:13.743Z,101920.59
2018-05-04T13:13:15.049Z,101918.85
2018-05-04T13:18:16.372Z,101917.09
2018-05-04T13:23:17.719Z,101907.39
2018-05-04T13:28:19.134Z,101905.45
2018-05-04T13:33:21.237Z,101892.47
2018-05-04T13:38:22.462Z,101893.34
2018-05-04T13:43:23.807Z,101900.91
2018-05-04T13:48:25.910Z,101901.37
2018-05-04T13:53:27.209Z,101901.56
2018-05-04T13:58:29.269Z,101905.26
2018-05-04T14:03:30.598Z,101902.14
2018-05-04T14:08:31.914Z,101899.80
2018-05-04T14:13:33.216Z,101902.59
2018-05-04T14:18:34.506Z,101894.37
2018-05-04T14:23:35.801Z,101892.94
2018-05-04T14:28:37.111Z,101893.14
2018-05-04T14:33:38.413Z,101887.66
2018-05-04T14:38:39.751Z,101884.81
2018-05-04T14:43:41.069Z,101885.84
2018-05-04T14:48:42.867Z,101883.39
2018-05-04T14:53:44.216Z,101884.98
2018-05-04T14:58:46.394Z,101889.11
2018-05-04T15:03:48.414Z,101886.80
2018-05-04T15:08:49.715Z,101891.49
2018-05-04T15:13:51.761Z,101893.75
2018-05-04T15:18:53.062Z,101891.47
2018-05-04T15:23:54.381Z,101892.22
2018-05-04T15:28:55.707Z,101893.60
2018-05-04T15:33:57.000Z,101890.93
2018-05-04T15:38:58.354Z,101894.97
2018-05-04T15:43:59.685Z,101887.06
2018-05-04T15:49:06.998Z,101890.73
2018-05-04T15:54:08.301Z,101900.55
2018-05-04T15:59:09.633Z,101900.25
2018-05-04T16:04:10.953Z,101894.21
2018-05-04T16:09:13.006Z,101889.27
2018-05-04T16:14:14.330Z,101890.52
2018-05-04T16:19:15.656Z,101894.30
2018-05-04T16:24:16.974Z,101887.69
2018-05-04T16:29:18.289Z,101878.73
2018-05-04T16:34:19.818Z,101867.69
2018-05-04T16:39:22.187Z,101876.16
2018-05-04T16:44:23.446Z,101878.55
2018-05-04T16:49:24.773Z,101879.22
2018-05-04T16:54:26.105Z,101880.23
2018-05-04T16:59:27.433Z,101884.75
2018-05-04T17:04:28.753Z,101887.58
2018-05-04T17:09:30.104Z,101888.59
2018-05-04T17:14:31.477Z,101889.93
2018-05-04T17:19:32.807Z,101898.51
2018-05-04T17:24:34.132Z,101900.91
2018-05-04T17:29:36.202Z,101905.97
2018-05-04T17:34:37.513Z,101910.12
2018-05-04T17:39:39.597Z,101910.06
2018-05-04T17:44:40.897Z,101919.66
2018-05-04T17:49:42.197Z,101918.96
2018-05-04T17:54:44.221Z,101924.06
2018-05-04T17:59:46.538Z,101931.75
2018-05-04T18:04:47.926Z,101936.20
2018-05-04T18:09:49.226Z,101939.48
2018-05-04T18:14:50.621Z,101938.47
2018-05-04T18:19:51.950Z,101947.03
2018-05-04T18:24:53.252Z,101955.51
2018-05-04T18:29:54.581Z,101965.91
2018-05-04T18:34:55.973Z,101962.70
2018-05-04T18:39:57.274Z,101969.19
2018-05-04T18:44:58.569Z,101967.97
2018-05-04T18:49:59.891Z,101972.42
2018-05-04T18:55:01.202Z,101980.71
2018-05-04T19:00:03.336Z,101984.55
2018-05-04T19:05:04.650Z,101990.55
2018-05-04T19:10:05.970Z,102000.02
2018-05-04T19:15:07.289Z,102002.81
2018-05-04T19:20:08.587Z,102009.77
2018-05-04T19:25:09.982Z,102020.14
2018-05-04T19:30:11.456Z,102014.90
2018-05-04T19:35:12.837Z,102011.16
2018-05-04T19:40:14.934Z,102022.84
2018-05-04T19:45:16.246Z,102035.02
2018-05-04T19:50:18.302Z,102030.69
2018-05-04T19:55:19.645Z,102025.69
2018-05-04T20:00:20.986Z,102034.70
2018-05-04T20:05:22.341Z,102037.16
2018-05-04T20:10:23.661Z,102039.87
2018-05-04T20:15:26.417Z,102040.79
2018-05-04T20:20:27.785Z,102041.00
2018-05-04T20:25:30.081Z,102046.95
2018-05-04T20:30:33.055Z,102053.25
2018-05-04T20:35:34.394Z,102059.83
2018-05-04T20:40:35.741Z,102060.46
2018-05-04T20:45:37.804Z,102057.39
2018-05-04T20:50:39.109Z,102058.05
2018-05-04T20:55:40.401Z,102066.34
2018-05-04T21:00:41.730Z,102072.65
2018-05-04T21:05:43.033Z,102078.43
2018-05-04T21:10:44.328Z,102087.24
2018-05-04T21:15:45.655Z,102087.58
2018-05-04T21:20:46.961Z,102080.21
2018-05-04T21:25:49.009Z,102087.37
2018-05-04T21:30:50.313Z,102088.80
2018-05-04T21:35:51.687Z,102094.41
2018-05-04T21:40:53.976Z,102103.31
2018-05-04T21:45:55.358Z,102105.77
2018-05-04T21:50:57.415Z,102108.14
2018-05-04T21:55:58.757Z,102104.99
2018-05-04T22:01:00.809Z,102115.30
2018-05-04T22:06:02.126Z,102116.41
2018-05-04T22:11:03.428Z,102105.74
2018-05-04T22:16:05.453Z,102116.45
2018-05-04T22:21:06.965Z,102118.50
2018-05-04T22:26:08.289Z,102123.05
2018-05-04T22:31:09.589Z,102132.11
2018-05-04T22:36:10.889Z,102134.58
2018-05-04T22:41:12.208Z,102147.50
2018-05-04T22:46:13.516Z,102144.78
2018-05-04T22:51:14.826Z,102147.28
2018-05-04T22:56:16.117Z,102146.08
2018-05-04T23:01:17.553Z,102139.55
2018-05-04T23:06:19.614Z,102148.39
2018-05-04T23:11:20.901Z,102142.14
2018-05-04T23:16:22.209Z,102144.25
2018-05-04T23:21:23.497Z,102144.84
2018-05-04T23:26:24.789Z,102145.69
2018-05-04T23:31:26.077Z,102145.21
2018-05-04T23:36:27.390Z,102150.14
2018-05-04T23:41:29.440Z,102153.06
2018-05-04T23:46:30.745Z,102150.64
2018-05-04T23:51:32.056Z,102160.65
2018-05-04T23:56:33.370Z,102167.26
